createdAt,value
2023-02-27T00:12:48.309Z,61.06
2023-02-27T00:16:26.870Z,60.11
2023-02-27T00:19:46.027Z,59.18
2023-02-27T00:23:04.236Z,60.21
2023-02-27T00:26:23.767Z,62.31
2023-02-27T00:33:31.681Z,61.36
2023-02-27T00:36:59.514Z,58.93
2023-02-27T00:40:16.827Z,59.53
2023-02-27T00:43:34.231Z,62.41
2023-02-27T00:47:18.733Z,65.80
2023-02-27T00:50:44.532Z,63.57
2023-02-27T00:54:10.190Z,61.64
2023-02-27T00:57:36.213Z,60.20
2023-02-27T01:01:02.308Z,58.66
2023-02-27T01:04:29.252Z,60.79
2023-02-27T01:07:55.136Z,64.20
2023-02-27T01:11:20.920Z,62.44
2023-02-27T01:14:50.812Z,60.91
2023-02-27T01:18:16.696Z,59.22
2023-02-27T01:21:43.479Z,58.10
2023-02-27T01:25:10.078Z,61.49
2023-02-27T01:28:35.860Z,65.34
2023-02-27T01:32:01.907Z,63.88
2023-02-27T01:35:27.518Z,60.93
2023-02-27T01:38:53.331Z,59.88
2023-02-27T01:42:21.347Z,58.30
2023-02-27T01:45:48.968Z,62.67
2023-02-27T01:49:18.002Z,63.34
2023-02-27T01:52:45.166Z,63.10
2023-02-27T01:56:13.728Z,59.54
2023-02-27T01:59:41.439Z,59.59
2023-02-27T02:03:03.690Z,63.74
2023-02-27T02:06:30.897Z,64.08
2023-02-27T02:09:59.174Z,62.89
2023-02-27T02:13:25.195Z,61.75
2023-02-27T02:17:01.536Z,59.81
2023-02-27T02:20:46.461Z,58.38
2023-02-27T02:24:34.414Z,61.69
2023-02-27T02:28:10.035Z,63.89
2023-02-27T02:31:47.316Z,63.37
2023-02-27T02:35:26.437Z,61.64
2023-02-27T02:38:58.148Z,58.11
2023-02-27T02:42:26.111Z,56.28
2023-02-27T02:45:57.376Z,56.05
2023-02-27T02:49:26.506Z,56.50
2023-02-27T02:52:56.137Z,56.59
2023-02-27T02:56:25.545Z,57.22
2023-02-27T02:59:54.584Z,58.22
2023-02-27T03:03:27.143Z,59.59
2023-02-27T03:06:55.831Z,60.26
2023-02-27T03:10:24.338Z,61.19
2023-02-27T03:13:52.374Z,60.69
2023-02-27T03:17:20.035Z,65.45
2023-02-27T03:20:48.465Z,70.62
2023-02-27T03:24:16.111Z,70.58
2023-02-27T03:27:44.465Z,68.68
2023-02-27T03:31:14.936Z,66.00
2023-02-27T03:34:41.455Z,64.11
2023-02-27T03:38:11.902Z,64.09
2023-02-27T03:41:40.646Z,56.87
2023-02-27T03:45:15.769Z,59.67
2023-02-27T03:48:44.573Z,63.93
2023-02-27T03:52:10.447Z,62.93
2023-02-27T03:55:39.424Z,62.67
2023-02-27T03:59:05.385Z,62.77
2023-02-27T04:02:31.367Z,62.50
2023-02-27T04:06:16.980Z,59.25
2023-02-27T04:09:51.240Z,54.99
2023-02-27T04:13:29.713Z,57.11
2023-02-27T04:17:05.271Z,63.86
2023-02-27T04:20:38.059Z,62.81
2023-02-27T04:24:06.464Z,63.31
2023-02-27T04:27:37.049Z,62.34
2023-02-27T04:31:06.530Z,59.54
2023-02-27T04:34:34.555Z,57.76
2023-02-27T04:38:01.940Z,62.98
2023-02-27T04:41:30.303Z,64.74
2023-02-27T04:44:57.857Z,62.56
2023-02-27T04:48:25.075Z,61.30
2023-02-27T04:51:54.277Z,59.62
2023-02-27T04:56:10.186Z,58.24
2023-02-27T04:59:15.923Z,62.15
2023-02-27T05:02:44.494Z,65.30
2023-02-27T05:06:11.604Z,63.59
2023-02-27T05:09:39.742Z,60.86
2023-02-27T05:13:07.522Z,58.95
2023-02-27T05:16:34.508Z,57.65
2023-02-27T05:20:00.625Z,65.41
2023-02-27T05:23:35.900Z,66.21
2023-02-27T05:27:13.762Z,65.32
2023-02-27T05:30:42.162Z,60.31
2023-02-27T05:34:10.963Z,57.51
2023-02-27T05:37:40.772Z,57.55
2023-02-27T05:41:09.344Z,63.69
2023-02-27T05:44:36.509Z,66.00
2023-02-27T05:48:04.882Z,61.04
2023-02-27T05:51:33.165Z,57.55
2023-02-27T05:55:01.714Z,62.51
2023-02-27T05:58:28.781Z,62.91
2023-02-27T06:01:54.773Z,60.24
2023-02-27T06:05:21.257Z,60.70
2023-02-27T06:08:47.533Z,64.16
2023-02-27T06:12:13.674Z,60.98
2023-02-27T06:15:39.823Z,58.22
2023-02-27T06:19:05.963Z,59.52
2023-02-27T06:22:32.874Z,61.24
2023-02-27T06:25:58.656Z,65.95
2023-02-27T06:29:24.751Z,64.52
2023-02-27T06:32:50.676Z,60.32
2023-02-27T06:36:16.370Z,61.62
2023-02-27T06:39:42.088Z,63.29
2023-02-27T06:43:07.791Z,61.16
2023-02-27T06:46:33.690Z,58.26
2023-02-27T06:49:59.476Z,60.31
2023-02-27T06:53:25.595Z,64.40
2023-02-27T06:56:52.045Z,62.56
2023-02-27T07:00:18.369Z,58.90
2023-02-27T07:03:44.182Z,55.82
2023-02-27T07:07:35.353Z,57.51
2023-02-27T07:10:55.924Z,65.93
2023-02-27T07:14:21.989Z,66.41
2023-02-27T07:17:38.163Z,58.85
2023-02-27T07:21:04.289Z,57.84
2023-02-27T07:24:30.184Z,61.08
2023-02-27T07:27:56.059Z,65.64
2023-02-27T07:31:21.871Z,60.97
2023-02-27T07:34:47.976Z,59.33
2023-02-27T07:38:13.809Z,58.53
2023-02-27T07:41:39.691Z,62.18
2023-02-27T07:45:06.022Z,64.29
2023-02-27T07:48:31.805Z,59.04
2023-02-27T07:51:57.727Z,57.27
2023-02-27T07:55:16.366Z,60.59
2023-02-27T07:58:42.016Z,63.43
2023-02-27T08:02:08.014Z,65.75
2023-02-27T08:05:33.688Z,58.87
2023-02-27T08:08:59.505Z,58.12
2023-02-27T08:12:25.282Z,61.77
2023-02-27T08:15:51.203Z,64.82
2023-02-27T08:19:17.308Z,63.56
2023-02-27T08:22:42.173Z,57.34
2023-02-27T08:26:08.081Z,59.11
2023-02-27T08:29:33.963Z,62.57
2023-02-27T08:32:59.735Z,57.97
2023-02-27T08:36:25.787Z,55.58
2023-02-27T08:39:51.639Z,60.61
2023-02-27T08:43:17.218Z,62.89
2023-02-27T08:46:42.830Z,57.69
2023-02-27T08:50:09.569Z,62.47
2023-02-27T08:53:44.026Z,58.82
2023-02-27T08:57:09.866Z,53.76
2023-02-27T09:00:35.631Z,58.07
2023-02-27T09:04:01.578Z,57.83
2023-02-27T09:07:27.243Z,64.09
2023-02-27T09:10:52.783Z,58.57
2023-02-27T09:14:18.861Z,58.99
2023-02-27T09:17:45.372Z,63.01
2023-02-27T09:21:11.521Z,61.20
2023-02-27T09:24:37.347Z,54.62
2023-02-27T09:28:02.941Z,58.35
2023-02-27T09:31:32.670Z,61.89
2023-02-27T09:34:58.990Z,60.75
2023-02-27T09:38:24.689Z,55.28
2023-02-27T09:41:58.532Z,57.77
2023-02-27T09:45:19.100Z,60.10
2023-02-27T09:48:47.876Z,61.16
2023-02-27T09:52:15.402Z,59.61
2023-02-27T09:55:42.671Z,63.24
2023-02-27T09:59:14.109Z,61.37
2023-02-27T10:02:45.576Z,55.74
2023-02-27T10:06:11.777Z,55.89
2023-02-27T10:09:42.773Z,57.71
2023-02-27T10:13:21.832Z,60.09
2023-02-27T10:16:49.502Z,61.07
2023-02-27T10:20:21.440Z,61.94
2023-02-27T10:23:50.613Z,61.62
2023-02-27T10:27:17.222Z,54.92
2023-02-27T10:30:42.999Z,54.11
2023-02-27T10:34:13.522Z,55.56
2023-02-27T10:37:32.008Z,58.60
2023-02-27T10:40:58.986Z,61.24
2023-02-27T10:44:18.700Z,63.25
2023-02-27T10:47:44.758Z,62.27
2023-02-27T10:51:24.214Z,54.38
2023-02-27T10:54:49.910Z,55.63
2023-02-27T10:58:20.737Z,55.84
2023-02-27T11:01:48.242Z,56.60
2023-02-27T11:05:20.372Z,54.79
2023-02-27T11:08:45.977Z,56.85
2023-02-27T11:12:28.510Z,59.36
2023-02-27T11:16:01.766Z,58.49
2023-02-27T11:19:33.448Z,55.68
2023-02-27T11:23:05.439Z,56.17
2023-02-27T11:26:57.431Z,54.57
2023-02-27T11:30:27.072Z,56.44
2023-02-27T11:33:54.633Z,53.87
2023-02-27T11:37:23.987Z,55.03
2023-02-27T11:40:52.286Z,53.70
2023-02-27T11:44:49.681Z,54.26
2023-02-27T11:48:11.883Z,52.78
2023-02-27T11:51:48.081Z,52.66
2023-02-27T11:55:18.104Z,53.45
2023-02-27T11:58:45.588Z,52.68
2023-02-27T12:02:16.458Z,53.25
2023-02-27T12:05:45.345Z,51.47
2023-02-27T12:09:21.158Z,53.63
2023-02-27T12:12:49.004Z,52.39
2023-02-27T12:16:24.822Z,52.19
2023-02-27T12:19:56.844Z,53.56
2023-02-27T12:23:25.089Z,54.34
2023-02-27T12:26:54.977Z,53.34
2023-02-27T12:30:23.399Z,51.46
2023-02-27T12:33:51.844Z,53.04
2023-02-27T12:37:25.155Z,52.10
2023-02-27T12:40:59.782Z,51.79
2023-02-27T12:44:34.512Z,52.19
2023-02-27T12:48:05.461Z,52.31
2023-02-27T12:51:42.314Z,53.23
2023-02-27T12:55:13.499Z,53.26
2023-02-27T12:58:43.726Z,53.46
2023-02-27T13:02:30.457Z,52.69
2023-02-27T13:05:54.590Z,53.85
2023-02-27T13:09:26.642Z,54.50
2023-02-27T13:12:56.630Z,53.49
2023-02-27T13:16:37.575Z,53.88
2023-02-27T13:20:06.233Z,53.96
2023-02-27T13:23:36.581Z,54.17
2023-02-27T13:27:04.828Z,54.71
2023-02-27T13:30:33.754Z,53.50
2023-02-27T13:34:08.485Z,52.22
2023-02-27T13:37:47.671Z,52.06
2023-02-27T13:41:28.099Z,51.43
2023-02-27T13:44:54.664Z,51.86
2023-02-27T13:48:40.080Z,52.49
2023-02-27T13:52:05.901Z,52.01
2023-02-27T13:55:35.247Z,52.82
2023-02-27T13:59:11.438Z,53.02
2023-02-27T14:02:56.447Z,53.19
2023-02-27T14:06:24.405Z,53.17
2023-02-27T14:09:52.119Z,53.10
2023-02-27T14:13:31.279Z,52.73
2023-02-27T14:21:09.191Z,53.44
2023-02-27T14:24:38.299Z,53.01
2023-02-27T14:28:19.636Z,52.81
2023-02-27T14:32:05.591Z,51.40
2023-02-27T14:35:31.522Z,52.09
2023-02-27T14:38:58.314Z,50.09
2023-02-27T14:42:31.052Z,50.69
2023-02-27T14:45:57.155Z,49.48
2023-02-27T14:49:26.271Z,49.28
2023-02-27T14:52:51.948Z,48.05
2023-02-27T14:56:20.301Z,48.02
2023-02-27T14:59:35.357Z,48.50
2023-02-27T15:03:01.735Z,50.25
2023-02-27T15:06:32.513Z,50.20
2023-02-27T15:09:59.304Z,50.24
2023-02-27T15:13:27.293Z,50.90
2023-02-27T15:16:56.695Z,51.73
2023-02-27T15:20:27.552Z,52.13
2023-02-27T15:23:57.146Z,52.01
2023-02-27T15:27:23.770Z,52.36
2023-02-27T15:30:50.596Z,52.61
2023-02-27T15:34:00.118Z,53.27
2023-02-27T15:37:27.179Z,53.40
2023-02-27T15:40:53.057Z,54.14
2023-02-27T15:44:21.658Z,54.51
2023-02-27T15:47:47.463Z,54.80
2023-02-27T15:51:14.428Z,55.41
2023-02-27T15:54:44.288Z,55.74
2023-02-27T15:58:03.796Z,55.51
2023-02-27T16:01:32.328Z,55.53
2023-02-27T16:04:58.776Z,55.89
2023-02-27T16:08:28.514Z,55.99
2023-02-27T16:12:07.858Z,56.21
2023-02-27T16:15:34.867Z,55.89
2023-02-27T16:19:02.688Z,55.86
2023-02-27T16:22:30.760Z,56.15
2023-02-27T16:26:02.717Z,56.68
2023-02-27T16:29:33.751Z,56.49
2023-02-27T16:32:59.951Z,56.30
2023-02-27T16:36:19.777Z,56.32
2023-02-27T16:39:45.453Z,56.39
2023-02-27T16:43:11.688Z,56.30
2023-02-27T16:46:37.651Z,56.57
2023-02-27T16:50:10.526Z,56.54
2023-02-27T16:54:27.548Z,56.54
2023-02-27T16:57:58.167Z,57.03
2023-02-27T17:01:35.341Z,56.99
2023-02-27T17:04:52.358Z,57.43
2023-02-27T17:08:22.914Z,57.45
2023-02-27T17:11:47.263Z,57.33
2023-02-27T17:19:15.336Z,57.17
2023-02-27T17:22:42.196Z,57.25
2023-02-27T17:26:07.881Z,57.30
2023-02-27T17:29:23.984Z,57.28
2023-02-27T17:32:49.791Z,57.32
2023-02-27T17:36:15.477Z,57.49
2023-02-27T17:39:44.266Z,57.81
2023-02-27T17:46:45.431Z,58.23
2023-02-27T17:50:12.144Z,58.10
2023-02-27T17:53:38.180Z,58.00
2023-02-27T17:57:04.937Z,58.00
2023-02-27T18:00:30.935Z,58.33
2023-02-27T18:03:57.083Z,60.02
2023-02-27T18:07:23.242Z,67.32
2023-02-27T18:10:31.507Z,70.28
2023-02-27T18:13:57.197Z,63.10
2023-02-27T18:17:02.864Z,56.76
2023-02-27T18:20:28.507Z,52.94
2023-02-27T18:23:54.154Z,53.97
2023-02-27T18:27:07.063Z,55.69
2023-02-27T18:30:34.106Z,56.94
2023-02-27T18:33:58.314Z,57.71
2023-02-27T18:37:14.940Z,57.32
2023-02-27T18:40:40.826Z,58.21
2023-02-27T18:44:05.112Z,58.43
2023-02-27T18:47:13.529Z,58.12
2023-02-27T18:50:21.702Z,57.31
2023-02-27T18:53:48.529Z,57.11
2023-02-27T18:57:03.047Z,57.08
2023-02-27T19:00:19.483Z,57.17
2023-02-27T19:03:45.217Z,57.20
2023-02-27T19:07:10.937Z,58.02
2023-02-27T19:10:16.707Z,58.31
2023-02-27T19:13:34.365Z,59.07
2023-02-27T19:17:07.464Z,59.26
2023-02-27T19:20:25.048Z,63.39
2023-02-27T19:23:50.873Z,70.42
2023-02-27T19:27:07.576Z,65.98
2023-02-27T19:30:13.993Z,61.28
2023-02-27T19:33:30.717Z,53.55
2023-02-27T19:36:36.285Z,52.43
2023-02-27T19:39:45.232Z,53.26
2023-02-27T19:42:51.418Z,54.63
2023-02-27T19:46:08.783Z,56.24
2023-02-27T19:49:34.424Z,57.84
2023-02-27T19:52:50.269Z,58.28
2023-02-27T19:56:00.056Z,59.70
2023-02-27T19:59:18.338Z,60.48
2023-02-27T20:02:27.380Z,59.68
2023-02-27T20:05:37.830Z,59.72
2023-02-27T20:09:03.598Z,60.24
2023-02-27T20:12:09.431Z,59.04
2023-02-27T20:15:24.818Z,59.48
2023-02-27T20:18:31.119Z,60.58
2023-02-27T20:21:47.678Z,61.75
2023-02-27T20:24:56.152Z,65.48
2023-02-27T20:28:23.910Z,70.01
2023-02-27T20:31:30.471Z,63.55
2023-02-27T20:34:39.186Z,56.12
2023-02-27T20:37:44.842Z,52.07
2023-02-27T20:40:51.018Z,53.57
2023-02-27T20:43:56.575Z,55.16
2023-02-27T20:47:12.077Z,55.93
2023-02-27T20:50:21.842Z,56.88
2023-02-27T20:53:27.428Z,58.42
2023-02-27T20:56:54.393Z,58.46
2023-02-27T21:00:02.295Z,57.29
2023-02-27T21:03:07.857Z,60.83
2023-02-27T21:06:14.713Z,61.02
2023-02-27T21:09:23.446Z,63.06
2023-02-27T21:12:29.014Z,69.93
2023-02-27T21:15:36.971Z,63.72
2023-02-27T21:18:44.253Z,56.65
2023-02-27T21:22:11.374Z,54.37
2023-02-27T21:25:40.940Z,56.27
2023-02-27T21:29:08.373Z,59.72
2023-02-27T21:32:26.683Z,60.09
2023-02-27T21:35:53.704Z,60.33
2023-02-27T21:39:20.329Z,60.69
2023-02-27T21:42:46.351Z,61.01
2023-02-27T21:46:13.784Z,61.10
2023-02-27T21:49:53.791Z,61.31
2023-02-27T21:53:11.171Z,64.94
2023-02-27T21:56:50.773Z,72.43
2023-02-27T22:00:29.628Z,69.30
2023-02-27T22:04:11.490Z,63.61
2023-02-27T22:07:30.450Z,57.02
2023-02-27T22:10:48.572Z,54.20
2023-02-27T22:14:09.411Z,56.87
2023-02-27T22:17:29.341Z,58.41
2023-02-27T22:21:04.765Z,58.61
2023-02-27T22:24:23.924Z,60.65
2023-02-27T22:27:41.822Z,59.65
2023-02-27T22:31:18.745Z,60.82
2023-02-27T22:34:38.616Z,61.12
2023-02-27T22:38:01.008Z,62.77
2023-02-27T22:41:26.595Z,71.39
2023-02-27T22:44:40.652Z,71.20
2023-02-27T22:47:59.889Z,66.91
2023-02-27T22:51:19.514Z,62.61
2023-02-27T22:54:38.473Z,56.93
2023-02-27T22:57:58.486Z,53.66
2023-02-27T23:01:16.784Z,55.12
2023-02-27T23:04:35.720Z,56.55
2023-02-27T23:07:54.881Z,57.37
2023-02-27T23:11:15.601Z,57.80
2023-02-27T23:14:38.068Z,57.76
2023-02-27T23:17:58.722Z,57.70
2023-02-27T23:21:20.228Z,57.63
2023-02-27T23:24:39.338Z,57.79
2023-02-27T23:27:57.187Z,58.06
2023-02-27T23:31:14.206Z,58.58
2023-02-27T23:35:04.922Z,59.82
2023-02-27T23:38:30.662Z,60.32
2023-02-27T23:42:03.243Z,61.03
2023-02-27T23:45:29.986Z,61.70
2023-02-27T23:48:56.074Z,62.16
2023-02-27T23:52:21.609Z,67.34
2023-02-27T23:55:47.670Z,75.78
2023-02-27T23:59:14.192Z,72.05
